Time;durP1;ratioP1;P1;durP2;ratioP2;P2;SDS_P1;SDS_P2;PMS_P1;PMS_P2;Temp;Humidity;BMP_temperature;BMP_pressure;BME280_temperature;BME280_humidity;BME280_pressure;Samples;Min_cycle;Max_cycle;Signal;HPM_P1;HPM_P2
2022/01/31 00:01:32;;;;;;;17.98;5.50;;;;;;;10.07;52.38;101370.03;4992353;28;20506;-74
2022/01/31 00:03:58;;;;;;;16.35;4.80;;;;;;;10.33;52.01;101367.34;4991702;28;20054;-75
2022/01/31 00:06:23;;;;;;;16.17;5.35;;;;;;;10.15;52.19;101371.69;4992168;28;20397;-75
2022/01/31 00:08:50;;;;;;;18.63;5.45;;;;;;;10.48;51.73;101356.31;4992454;28;20081;-76
2022/01/31 00:11:16;;;;;;;17.98;5.90;;;;;;;10.50;51.26;101338.13;4974799;28;20117;-75
2022/01/31 00:13:45;;;;;;;19.13;6.07;;;;;;;10.52;51.38;101322.63;4992254;28;20386;-75
2022/01/31 00:16:16;;;;;;;17.25;5.43;;;;;;;10.65;50.88;101301.09;4992281;28;20042;-74
2022/01/31 00:18:41;;;;;;;14.20;6.95;;;;;;;10.63;50.60;101288.88;4989903;28;20038;-75
2022/01/31 00:21:08;;;;;;;25.60;6.20;;;;;;;10.59;50.83;101269.69;4991996;28;20030;-74
2022/01/31 00:23:33;;;;;;;16.08;6.53;;;;;;;11.18;49.36;101261.25;4992444;28;20042;-74
2022/01/31 00:25:58;;;;;;;19.02;6.15;;;;;;;10.55;51.16;101246.97;4991182;28;20505;-75
2022/01/31 00:28:24;;;;;;;19.42;6.40;;;;;;;10.48;50.66;101256.91;4991838;28;20066;-74
2022/01/31 00:30:49;;;;;;;22.02;5.20;;;;;;;9.57;53.57;101256.13;4990995;28;20125;-76
2022/01/31 00:33:15;;;;;;;19.40;6.63;;;;;;;9.86;53.52;101237.91;4990992;28;20046;-75
2022/01/31 00:35:40;;;;;;;22.75;6.03;;;;;;;10.19;51.98;101239.50;4988229;28;20042;-73
2022/01/31 00:38:06;;;;;;;15.18;6.18;;;;;;;9.71;53.60;101222.88;4981424;28;20035;-74
2022/01/31 00:40:32;;;;;;;25.33;7.05;;;;;;;10.22;52.39;101208.72;4981259;28;20034;-73
2022/01/31 00:42:58;;;;;;;22.50;7.03;;;;;;;10.12;52.35;101193.03;4983824;28;20038;-74
2022/01/31 00:45:26;;;;;;;15.10;6.28;;;;;;;10.57;51.37;101173.13;4991577;28;20453;-75
2022/01/31 00:48:02;;;;;;;22.50;6.25;;;;;;;10.69;51.24;101161.72;4991467;28;20033;-73
2022/01/31 00:50:29;;;;;;;11.80;5.28;;;;;;;10.01;53.16;101150.72;4997776;28;20212;-76
2022/01/31 00:52:55;;;;;;;25.25;5.85;;;;;;;10.30;53.08;101142.13;4991456;28;20494;-72
2022/01/31 00:55:21;;;;;;;20.63;6.43;;;;;;;10.28;54.31;101121.91;4991829;28;20391;-74
2022/01/31 00:57:46;;;;;;;23.20;6.72;;;;;;;10.13;55.31;101116.81;4989496;28;20026;-73
2022/01/31 01:00:14;;;;;;;20.48;6.93;;;;;;;9.69;56.86;101122.97;4991577;28;20034;-73
2022/01/31 01:02:40;;;;;;;17.38;7.15;;;;;;;10.04;56.35;101112.72;4989890;28;20065;-74
2022/01/31 01:05:06;;;;;;;28.70;8.18;;;;;;;9.73;57.52;101100.03;4991688;28;20126;-73
2022/01/31 01:07:32;;;;;;;21.33;7.25;;;;;;;9.67;58.03;101100.06;4991547;28;20030;-73
2022/01/31 01:09:58;;;;;;;11.75;5.80;;;;;;;9.33;59.72;101103.09;4991758;28;20038;-74
2022/01/31 01:12:23;;;;;;;22.92;6.60;;;;;;;9.86;58.51;101084.91;4992214;28;20057;-74
2022/01/31 01:14:49;;;;;;;17.10;7.85;;;;;;;9.33;60.82;101063.69;4992701;28;20026;-74
2022/01/31 01:17:15;;;;;;;15.73;5.60;;;;;;;9.07;61.26;101053.03;4994844;28;20037;-73
2022/01/31 01:19:41;;;;;;;19.77;8.00;;;;;;;9.92;59.31;101033.06;4996163;28;20078;-73
2022/01/31 01:22:07;;;;;;;20.83;6.93;;;;;;;9.27;60.98;101027.00;4995915;28;20041;-73
2022/01/31 01:24:33;;;;;;;23.48;7.75;;;;;;;9.58;60.60;101021.69;4997049;28;20046;-73
2022/01/31 01:26:58;;;;;;;24.50;7.05;;;;;;;9.63;61.13;101019.19;4996401;28;20113;-73
2022/01/31 01:29:24;;;;;;;17.85;6.45;;;;;;;9.24;62.62;100999.75;4995795;28;20030;-74
2022/01/31 01:31:50;;;;;;;21.27;7.38;;;;;;;9.41;62.10;100993.72;4995857;28;20129;-73
2022/01/31 01:34:16;;;;;;;27.70;9.18;;;;;;;9.45;61.46;100991.44;4995593;28;20048;-74
2022/01/31 01:36:45;;;;;;;18.02;6.30;;;;;;;9.32;62.54;100984.25;4994997;28;20034;-73
2022/01/31 01:39:10;;;;;;;12.98;6.65;;;;;;;9.13;63.68;100966.41;4995909;28;20054;-74
2022/01/31 01:41:36;;;;;;;16.35;7.18;;;;;;;9.00;64.08;100962.97;4995917;28;20065;-72
2022/01/31 01:44:02;;;;;;;18.95;7.18;;;;;;;8.86;64.16;100938.06;4995682;28;20046;-73
2022/01/31 01:46:27;;;;;;;9.65;5.82;;;;;;;8.68;64.70;100936.06;4995671;28;20042;-72
2022/01/31 01:48:53;;;;;;;21.50;8.57;;;;;;;8.85;64.23;100923.84;4995541;28;20093;-73
2022/01/31 01:51:18;;;;;;;12.35;6.18;;;;;;;9.29;62.33;100916.84;4995529;28;20046;-75
2022/01/31 01:53:44;;;;;;;17.80;7.78;;;;;;;8.92;64.87;100915.78;4993939;28;20623;-73
2022/01/31 01:56:09;;;;;;;13.57;5.80;;;;;;;8.42;65.87;100911.19;4995769;28;20038;-73
2022/01/31 01:58:40;;;;;;;16.40;6.15;;;;;;;8.76;64.85;100906.38;4982494;28;20146;-74
2022/01/31 02:01:07;;;;;;;18.48;7.22;;;;;;;9.32;63.27;100882.38;4976235;28;20035;-73
2022/01/31 02:03:34;;;;;;;16.98;6.88;;;;;;;8.90;64.88;100882.19;4975955;28;20744;-73
2022/01/31 02:06:02;;;;;;;15.63;6.90;;;;;;;8.58;66.39;100873.25;4974259;28;20038;-73
2022/01/31 02:08:29;;;;;;;19.40;7.63;;;;;;;9.13;63.92;100858.34;4976173;28;20093;-73
2022/01/31 02:10:55;;;;;;;19.60;7.68;;;;;;;9.65;62.52;100845.41;4975791;28;20042;-73
2022/01/31 02:13:20;;;;;;;15.68;6.97;;;;;;;9.21;64.00;100832.13;4975727;28;20043;-72
2022/01/31 02:15:51;;;;;;;13.63;5.50;;;;;;;8.95;64.63;100834.13;4976090;28;20240;-71
2022/01/31 02:18:18;;;;;;;11.63;6.80;;;;;;;9.38;64.17;100827.88;4975453;28;20031;-72
2022/01/31 02:20:44;;;;;;;17.33;7.50;;;;;;;8.96;65.43;100822.38;4988592;28;20044;-74
2022/01/31 02:23:11;;;;;;;10.50;5.07;;;;;;;9.25;64.15;100795.78;5014469;28;20033;-73
2022/01/31 02:26:03;;;;;;;12.10;7.60;;;;;;;10.04;62.16;100787.03;5014469;28;20186;-71
2022/01/31 02:28:31;;;;;;;11.10;4.80;;;;;;;8.89;65.79;100782.22;5002185;28;20486;-72
2022/01/31 02:30:57;;;;;;;11.55;4.78;;;;;;;9.33;64.83;100774.06;4994728;28;20037;-72
2022/01/31 02:33:23;;;;;;;15.30;7.70;;;;;;;9.93;62.73;100771.66;4994803;28;20039;-73
2022/01/31 02:35:53;;;;;;;11.82;4.85;;;;;;;9.17;65.61;100763.88;5001414;28;20022;-73
2022/01/31 02:38:18;;;;;;;6.22;3.67;;;;;;;9.27;64.95;100744.63;5014322;28;20061;-72
2022/01/31 02:40:45;;;;;;;16.02;5.25;;;;;;;9.29;64.91;100747.91;5014221;28;20045;-74
2022/01/31 02:43:12;;;;;;;7.53;4.60;;;;;;;9.56;64.67;100725.16;5014403;28;20116;-73
2022/01/31 02:45:38;;;;;;;9.10;4.90;;;;;;;9.52;64.88;100715.94;5013963;28;20120;-72
2022/01/31 02:48:05;;;;;;;13.68;5.30;;;;;;;9.52;64.90;100706.03;5012133;28;20175;-74
2022/01/31 02:50:30;;;;;;;8.73;4.80;;;;;;;9.91;63.94;100690.53;5014801;28;20034;-71
2022/01/31 02:55:45;;;;;;;7.45;4.80;;;;;;;9.38;67.55;100687.59;5014076;28;20038;-71
2022/01/31 02:58:11;;;;;;;5.05;3.25;;;;;;;9.31;67.29;100684.16;5003821;28;20268;-73
2022/01/31 03:00:39;;;;;;;12.93;4.70;;;;;;;9.57;66.85;100668.59;4994140;28;20076;-72
2022/01/31 03:03:05;;;;;;;11.95;4.68;;;;;;;9.42;67.68;100659.28;4994341;28;20030;-71
2022/01/31 03:05:31;;;;;;;10.65;5.35;;;;;;;9.40;68.21;100654.16;4995099;28;20038;-72
2022/01/31 03:08:14;;;;;;;8.73;6.10;;;;;;;9.83;66.86;100642.56;4993973;28;20058;-72
2022/01/31 03:10:40;;;;;;;11.82;5.97;;;;;;;9.81;67.89;100640.06;4994155;28;20046;-73
2022/01/31 03:13:06;;;;;;;13.68;7.28;;;;;;;10.41;66.33;100640.97;4994106;28;20104;-70
2022/01/31 03:15:31;;;;;;;14.50;6.57;;;;;;;9.90;67.57;100632.53;4994290;28;20472;-72
2022/01/31 03:17:58;;;;;;;18.70;8.93;;;;;;;11.05;64.52;100632.06;4994706;28;20030;-71
2022/01/31 03:20:24;;;;;;;20.40;5.93;;;;;;;10.51;65.71;100625.09;4994059;28;20051;-72
2022/01/31 03:22:50;;;;;;;14.50;5.82;;;;;;;10.72;64.79;100610.28;4993943;28;20378;-73
2022/01/31 03:25:17;;;;;;;28.33;7.25;;;;;;;10.46;66.42;100616.91;4993839;28;20670;-72
2022/01/31 03:27:43;;;;;;;16.02;5.88;;;;;;;10.56;66.30;100612.63;4994024;28;20129;-71
2022/01/31 03:30:13;;;;;;;23.38;6.65;;;;;;;11.41;63.78;100608.44;4994121;28;20044;-71
2022/01/31 03:32:39;;;;;;;18.73;5.57;;;;;;;10.75;65.91;100596.41;4994742;28;20030;-73
2022/01/31 03:35:07;;;;;;;23.67;4.22;;;;;;;10.58;66.48;100594.41;4993773;28;20048;-73
2022/01/31 03:37:32;;;;;;;21.60;4.55;;;;;;;10.59;65.98;100589.84;4993623;28;20502;-72
2022/01/31 03:39:58;;;;;;;20.80;3.22;;;;;;;10.48;65.18;100598.69;4992920;28;20097;-74
2022/01/31 03:42:23;;;;;;;15.68;2.92;;;;;;;10.63;64.46;100597.19;4993760;28;20038;-72
2022/01/31 03:44:49;;;;;;;22.35;3.53;;;;;;;10.72;64.41;100588.81;4994335;28;20084;-71
2022/01/31 03:47:16;;;;;;;25.60;4.85;;;;;;;10.68;64.33;100607.25;4992081;28;20062;-72
2022/01/31 03:49:41;;;;;;;14.52;3.08;;;;;;;10.79;64.04;100613.72;4993680;28;20034;-72
2022/01/31 03:52:07;;;;;;;18.58;3.40;;;;;;;10.25;64.30;100623.63;4993148;28;20389;-72
2022/01/31 03:54:32;;;;;;;9.90;2.15;;;;;;;9.51;66.62;100590.91;4993012;28;20092;-71
2022/01/31 03:56:58;;;;;;;7.85;1.70;;;;;;;10.00;64.36;100601.44;4993436;28;20124;-72
2022/01/31 03:59:23;;;;;;;11.95;2.03;;;;;;;9.86;64.16;100596.47;4993391;28;20038;-71
2022/01/31 04:01:49;;;;;;;8.57;1.42;;;;;;;9.63;64.79;100583.75;4992911;28;20069;-71
2022/01/31 04:04:14;;;;;;;13.82;2.83;;;;;;;10.62;62.09;100570.56;4993168;28;20123;-72
2022/01/31 04:06:40;;;;;;;13.55;2.53;;;;;;;10.29;64.34;100570.28;4993040;28;20030;-71
2022/01/31 04:09:06;;;;;;;17.60;3.13;;;;;;;11.01;61.76;100577.13;4992865;28;20034;-71
2022/01/31 04:11:32;;;;;;;19.27;2.47;;;;;;;9.65;64.92;100584.34;4993598;28;20022;-73
2022/01/31 04:13:58;;;;;;;13.02;3.00;;;;;;;10.18;64.04;100596.03;5005139;28;20405;-71
2022/01/31 04:16:23;;;;;;;4.63;0.80;;;;;;;9.79;63.88;100585.81;5012579;28;20510;-73
2022/01/31 04:18:48;;;;;;;4.65;1.08;;;;;;;9.06;65.93;100598.38;5012488;28;20041;-72
2022/01/31 04:21:14;;;;;;;6.15;1.13;;;;;;;8.48;68.43;100568.41;4998558;28;20512;-74
2022/01/31 04:23:40;;;;;;;1.73;0.90;;;;;;;8.35;68.65;100573.06;4992849;28;20026;-71
2022/01/31 04:26:12;;;;;;;3.28;0.77;;;;;;;9.07;67.47;100554.47;4992472;28;20042;-72
2022/01/31 04:28:46;;;;;;;9.43;1.67;;;;;;;9.28;66.21;100547.84;4992283;28;20124;-73
2022/01/31 04:33:46;;;;;;;14.57;3.17;;;;;;;10.62;62.04;100549.06;4992391;28;20129;-73
2022/01/31 04:36:14;;;;;;;12.68;1.80;;;;;;;10.17;64.04;100551.44;4992484;28;20107;-72
2022/01/31 04:38:40;;;;;;;7.38;2.10;;;;;;;10.61;62.99;100542.06;4992981;28;20038;-73
2022/01/31 04:41:06;;;;;;;14.35;2.83;;;;;;;10.82;62.26;100540.66;4992345;28;20478;-71
2022/01/31 04:43:32;;;;;;;27.77;2.78;;;;;;;10.62;61.52;100524.88;4992244;28;20071;-70
2022/01/31 04:46:00;;;;;;;18.00;2.67;;;;;;;10.76;61.47;100531.69;4992412;28;20042;-71
2022/01/31 04:48:26;;;;;;;21.05;3.63;;;;;;;11.27;59.91;100520.16;4992659;28;20070;-71
2022/01/31 04:50:51;;;;;;;20.85;3.13;;;;;;;10.20;62.55;100523.34;4992798;28;20091;-71
2022/01/31 04:53:17;;;;;;;32.42;4.45;;;;;;;10.58;60.96;100534.47;4991819;28;20113;-71
2022/01/31 04:55:42;;;;;;;30.38;3.55;;;;;;;10.46;61.09;100517.50;4992444;28;20054;-72
2022/01/31 04:58:08;;;;;;;17.40;3.13;;;;;;;10.57;61.26;100527.47;4992326;28;20046;-73
2022/01/31 05:00:34;;;;;;;14.60;3.13;;;;;;;10.58;61.43;100505.72;4992414;28;20101;-72
2022/01/31 05:02:59;;;;;;;21.73;3.10;;;;;;;10.53;60.46;100508.28;4991486;28;20078;-72
2022/01/31 05:05:25;;;;;;;17.38;3.40;;;;;;;10.84;60.13;100499.06;4991953;28;20125;-72
2022/01/31 05:07:53;;;;;;;26.92;3.72;;;;;;;11.26;59.12;100497.03;4991517;28;20461;-73
2022/01/31 05:10:19;;;;;;;30.77;3.80;;;;;;;10.56;61.10;100494.41;4999710;28;20029;-73
2022/01/31 05:12:45;;;;;;;16.63;2.53;;;;;;;10.36;62.33;100482.34;5011017;28;20521;-71
2022/01/31 05:15:10;;;;;;;25.83;4.18;;;;;;;10.32;64.05;100489.22;5008869;28;20091;-72
2022/01/31 05:17:36;;;;;;;14.25;3.33;;;;;;;9.18;67.24;100516.19;4992498;28;20170;-72
2022/01/31 05:20:04;;;;;;;10.93;1.38;;;;;;;9.81;65.45;100507.78;4989782;28;20034;-72
2022/01/31 05:22:29;;;;;;;7.75;1.35;;;;;;;9.34;67.23;100512.91;4991805;28;20038;-72
2022/01/31 05:24:55;;;;;;;2.67;1.20;;;;;;;8.99;67.50;100517.25;5001243;28;20088;-73
2022/01/31 05:27:21;;;;;;;8.07;1.17;;;;;;;9.38;66.98;100495.34;5011652;28;20038;-73
2022/01/31 05:29:46;;;;;;;8.05;1.60;;;;;;;9.57;65.41;100486.19;5012043;28;20034;-73
2022/01/31 05:32:12;;;;;;;12.05;1.75;;;;;;;9.95;65.25;100477.81;5011563;28;20042;-74
2022/01/31 05:34:37;;;;;;;6.45;2.15;;;;;;;9.77;66.07;100470.66;5011557;28;20050;-72
2022/01/31 05:37:03;;;;;;;17.48;2.95;;;;;;;9.50;67.34;100469.41;5011517;28;20572;-71
2022/01/31 05:39:28;;;;;;;13.88;2.40;;;;;;;9.94;66.42;100453.91;5011859;28;20414;-71
2022/01/31 05:41:55;;;;;;;10.25;1.88;;;;;;;9.48;68.02;100467.97;5012140;28;20030;-71
2022/01/31 05:44:22;;;;;;;10.80;2.40;;;;;;;9.42;67.85;100471.56;5011151;28;20129;-72
2022/01/31 05:46:47;;;;;;;21.90;2.78;;;;;;;9.64;67.33;100473.53;5011845;28;20571;-71
2022/01/31 05:49:13;;;;;;;20.92;4.78;;;;;;;10.04;66.54;100454.97;5012320;28;20034;-72
2022/01/31 05:52:01;;;;;;;15.35;3.08;;;;;;;9.45;67.99;100455.84;5011944;28;20114;-72
2022/01/31 05:54:27;;;;;;;15.88;2.05;;;;;;;9.54;67.63;100459.84;5011247;28;20030;-72
2022/01/31 05:56:54;;;;;;;10.38;2.30;;;;;;;9.67;67.06;100448.09;5011812;28;20053;-72
2022/01/31 05:59:20;;;;;;;22.08;2.53;;;;;;;9.81;66.75;100443.38;5011174;28;20034;-72
2022/01/31 06:01:45;;;;;;;14.65;2.10;;;;;;;9.47;67.50;100447.59;5011517;28;20696;-74
2022/01/31 06:04:10;;;;;;;10.35;2.58;;;;;;;9.86;66.68;100443.50;5015133;28;20134;-73
2022/01/31 06:06:36;;;;;;;16.33;2.22;;;;;;;9.79;66.26;100435.53;5013216;28;20120;-73
2022/01/31 06:09:04;;;;;;;7.63;1.92;;;;;;;10.07;65.73;100441.09;5005696;28;20088;-73
2022/01/31 06:11:31;;;;;;;23.98;4.13;;;;;;;9.89;66.06;100438.47;4996074;28;20038;-72
2022/01/31 06:13:59;;;;;;;30.10;4.10;;;;;;;9.74;66.88;100444.28;4978041;28;20043;-73
2022/01/31 06:16:25;;;;;;;10.50;2.13;;;;;;;9.38;67.37;100430.97;4994930;28;20038;-73
2022/01/31 06:18:50;;;;;;;17.75;2.70;;;;;;;9.69;67.83;100435.28;4994879;28;20169;-74
2022/01/31 06:21:16;;;;;;;23.13;4.00;;;;;;;10.46;65.27;100435.06;4995232;28;20444;-71
2022/01/31 06:23:41;;;;;;;18.60;2.80;;;;;;;10.28;65.57;100445.13;4995196;28;20038;-71
2022/01/31 06:26:07;;;;;;;24.73;4.60;;;;;;;9.77;68.21;100427.72;5013485;28;20529;-72
2022/01/31 06:28:32;;;;;;;14.60;1.85;;;;;;;10.32;65.71;100430.97;5001934;28;20069;-73
2022/01/31 06:30:58;;;;;;;11.00;1.77;;;;;;;9.48;68.85;100423.22;4994507;28;20053;-72
2022/01/31 06:33:24;;;;;;;11.77;3.00;;;;;;;9.57;68.52;100451.34;4994156;28;20038;-74
2022/01/31 06:35:50;;;;;;;20.88;2.95;;;;;;;10.37;65.54;100430.28;4998592;28;20045;-72
2022/01/31 06:38:15;;;;;;;13.63;2.70;;;;;;;9.52;67.90;100418.19;4992979;28;20394;-72
2022/01/31 06:40:41;;;;;;;16.90;3.30;;;;;;;9.62;68.49;100421.97;4995438;28;20041;-71
2022/01/31 06:43:06;;;;;;;17.40;3.47;;;;;;;9.01;69.91;100418.69;5006486;28;20083;-72
2022/01/31 06:45:32;;;;;;;20.75;3.67;;;;;;;10.04;67.46;100413.88;4996588;28;20040;-73
2022/01/31 06:47:57;;;;;;;18.48;2.50;;;;;;;9.82;67.58;100416.31;4997078;28;20088;-75
2022/01/31 06:50:23;;;;;;;16.02;3.33;;;;;;;9.53;69.04;100401.06;5001467;28;20498;-71
2022/01/31 06:52:53;;;;;;;19.88;3.88;;;;;;;9.70;68.44;100391.31;4997391;28;20594;-74
2022/01/31 06:55:20;;;;;;;23.27;4.95;;;;;;;9.54;68.18;100403.53;4993688;28;20081;-72
2022/01/31 06:57:48;;;;;;;24.02;3.67;;;;;;;9.96;67.79;100408.84;4993855;28;20026;-72
2022/01/31 07:00:14;;;;;;;40.75;4.13;;;;;;;9.78;67.68;100404.41;4993625;28;20026;-71
2022/01/31 07:02:39;;;;;;;16.13;2.53;;;;;;;9.44;68.63;100413.97;4997949;28;20131;-71
2022/01/31 07:05:05;;;;;;;16.88;2.83;;;;;;;8.98;70.39;100384.31;4993501;28;20486;-73
2022/01/31 07:07:31;;;;;;;13.05;2.78;;;;;;;9.71;67.93;100382.19;4993531;28;20030;-73
2022/01/31 07:09:57;;;;;;;21.58;4.75;;;;;;;9.55;68.25;100383.69;4997587;28;20031;-71
2022/01/31 07:12:30;;;;;;;12.15;1.75;;;;;;;9.50;68.66;100394.31;4993311;28;20088;-71
2022/01/31 07:14:56;;;;;;;17.02;2.50;;;;;;;9.24;70.05;100386.63;4994864;28;20034;-73
2022/01/31 07:17:21;;;;;;;15.65;2.55;;;;;;;9.67;68.79;100365.75;4996455;28;20037;-72
2022/01/31 07:19:47;;;;;;;15.43;2.50;;;;;;;9.85;67.33;100389.00;4992957;28;20038;-73
2022/01/31 07:22:14;;;;;;;11.32;2.33;;;;;;;9.87;67.66;100388.78;4992650;28;20076;-74
2022/01/31 07:25:01;;;;;;;11.05;2.90;;;;;;;8.13;72.52;100363.81;4993806;28;20062;-74
2022/01/31 07:27:26;;;;;;;14.45;2.92;;;;;;;9.41;69.34;100363.50;4994806;28;20611;-75
2022/01/31 07:29:52;;;;;;;7.90;2.85;;;;;;;8.72;70.99;100390.81;4992810;28;20041;-76
2022/01/31 07:32:19;;;;;;;15.65;1.88;;;;;;;9.13;69.21;100347.19;4992294;28;20454;-74
2022/01/31 07:34:46;;;;;;;17.02;2.30;;;;;;;9.19;69.42;100353.50;4992245;28;20050;-73
2022/01/31 07:37:12;;;;;;;15.60;2.22;;;;;;;9.30;68.82;100348.19;4989861;28;20366;-75
2022/01/31 07:39:42;;;;;;;9.25;1.50;;;;;;;9.51;67.90;100355.69;4992769;28;20042;-73
2022/01/31 07:42:09;;;;;;;14.00;2.40;;;;;;;9.71;67.71;100350.84;4992529;28;20110;-74
2022/01/31 07:44:34;;;;;;;8.98;1.77;;;;;;;9.02;69.74;100352.53;4993098;28;20025;-76
2022/01/31 07:47:00;;;;;;;12.65;1.98;;;;;;;9.48;68.33;100342.75;4992069;28;20039;-75
2022/01/31 07:49:25;;;;;;;23.52;3.25;;;;;;;9.31;69.25;100357.06;4973958;28;20038;-74
2022/01/31 07:51:51;;;;;;;9.77;2.88;;;;;;;9.49;68.76;100357.00;4991543;28;20045;-74
2022/01/31 07:54:16;;;;;;;20.60;4.88;;;;;;;8.97;71.51;100376.47;4991966;28;20026;-75
2022/01/31 07:56:43;;;;;;;12.35;2.05;;;;;;;9.01;70.64;100330.25;4989936;28;20030;-76
2022/01/31 07:59:09;;;;;;;15.27;1.95;;;;;;;8.74;71.60;100355.75;4986240;28;20038;-75
2022/01/31 08:01:35;;;;;;;15.30;2.15;;;;;;;9.14;70.82;100346.13;4989342;28;20030;-77
2022/01/31 08:04:00;;;;;;;21.92;3.78;;;;;;;9.26;70.37;100338.13;4991134;28;20383;-77
2022/01/31 08:06:25;;;;;;;22.25;4.53;;;;;;;9.47;69.87;100341.09;4985321;28;20134;-73
2022/01/31 08:08:51;;;;;;;20.52;2.70;;;;;;;9.18;70.05;100408.19;4977020;28;20042;-79
2022/01/31 08:11:17;;;;;;;18.77;3.38;;;;;;;9.46;69.64;100352.06;4984946;28;20042;-75
2022/01/31 08:13:42;;;;;;;19.60;2.97;;;;;;;9.29;70.72;100351.91;4974305;28;20035;-77
2022/01/31 08:18:35;;;;;;;11.50;2.28;;;;;;;8.76;73.27;100367.91;4978512;28;20034;-77
2022/01/31 08:21:03;;;;;;;11.27;3.58;;;;;;;9.25;71.56;100364.16;4969040;28;20053;-75
2022/01/31 08:23:31;;;;;;;19.58;3.10;;;;;;;8.47;74.06;100344.53;4968125;28;20057;-75
2022/01/31 08:26:00;;;;;;;14.23;3.33;;;;;;;8.53;73.93;100337.47;4974533;28;20054;-78
2022/01/31 08:31:32;;;;;;;12.15;3.30;;;;;;;9.11;72.77;100372.59;4910310;29;20126;-76
2022/01/31 08:36:26;;;;;;;19.10;3.10;;;;;;;8.91;73.57;100367.50;4909378;29;20092;-77
2022/01/31 08:38:52;;;;;;;14.60;2.88;;;;;;;9.43;71.33;100372.13;4909258;29;20211;-77
2022/01/31 08:41:18;;;;;;;13.20;3.47;;;;;;;9.53;71.68;100390.34;4900365;29;20040;-76
2022/01/31 08:43:44;;;;;;;18.77;3.72;;;;;;;9.13;72.79;100375.84;4889874;29;20048;-75
2022/01/31 08:46:13;;;;;;;17.33;3.17;;;;;;;9.53;70.86;100412.59;4890909;29;20568;-73
2022/01/31 08:48:40;;;;;;;25.08;4.72;;;;;;;9.48;71.71;100376.78;4890132;29;20047;-75
2022/01/31 08:51:09;;;;;;;7.97;2.47;;;;;;;9.41;71.22;100384.13;4889732;29;20139;-75
2022/01/31 08:53:35;;;;;;;11.48;2.40;;;;;;;9.49;72.01;100418.66;4889807;29;20145;-78
2022/01/31 08:56:07;;;;;;;19.77;2.65;;;;;;;9.30;72.08;100390.25;4891390;29;20045;-77
2022/01/31 08:58:33;;;;;;;19.38;2.70;;;;;;;9.22;72.42;100399.44;4890478;29;20385;-73
2022/01/31 09:01:01;;;;;;;6.80;2.38;;;;;;;9.40;71.49;100404.75;4890573;29;20041;-77
2022/01/31 09:03:42;;;;;;;8.85;2.30;;;;;;;9.56;72.32;100396.06;4890580;29;20045;-74
2022/01/31 09:06:09;;;;;;;12.13;2.25;;;;;;;8.66;74.76;100406.94;4892538;29;20032;-73
2022/01/31 09:08:36;;;;;;;13.35;2.67;;;;;;;9.77;71.13;100407.31;4954661;28;20722;-76
2022/01/31 09:11:02;;;;;;;15.40;2.67;;;;;;;9.69;72.03;100427.22;4968605;28;20038;-75
2022/01/31 09:13:28;;;;;;;19.95;2.83;;;;;;;10.11;70.02;100430.72;4980163;28;20046;-76
2022/01/31 09:15:53;;;;;;;14.43;2.70;;;;;;;9.98;70.93;100414.81;4973819;28;20049;-74
2022/01/31 09:18:19;;;;;;;25.38;4.55;;;;;;;10.05;70.61;100427.06;4987702;28;20498;-75
2022/01/31 09:20:44;;;;;;;6.03;2.00;;;;;;;9.37;71.29;100439.25;4955402;28;20050;-75
2022/01/31 09:23:10;;;;;;;9.70;2.08;;;;;;;9.44;71.95;100450.69;4973122;28;20114;-74
2022/01/31 09:25:36;;;;;;;13.18;2.38;;;;;;;9.63;69.92;100446.94;4969249;28;20035;-75
2022/01/31 09:28:02;;;;;;;8.52;1.35;;;;;;;9.70;70.60;100455.72;4976127;28;20047;-76
2022/01/31 09:30:29;;;;;;;11.27;2.28;;;;;;;9.77;71.26;100456.41;4968305;28;20094;-76
2022/01/31 09:32:58;;;;;;;16.05;2.08;;;;;;;9.79;70.58;100483.84;4969033;28;20105;-75
2022/01/31 09:35:25;;;;;;;8.30;1.95;;;;;;;10.26;69.57;100479.44;4981533;28;20084;-75
2022/01/31 09:37:51;;;;;;;5.47;1.48;;;;;;;9.39;71.52;100475.53;4988033;28;20046;-73
2022/01/31 09:40:19;;;;;;;17.23;2.25;;;;;;;10.10;69.92;100498.91;4988447;28;20030;-75
2022/01/31 09:48:35;;;;;;;4.10;0.85;;;;;;;9.80;70.34;100531.09;4971042;28;20145;-74
2022/01/31 09:51:17;;;;;;;10.13;1.00;;;;;;;9.96;70.20;100526.97;4977393;28;20518;-74
2022/01/31 09:53:47;;;;;;;7.10;1.05;;;;;;;9.73;71.18;100535.72;4973904;28;20051;-74
2022/01/31 09:56:16;;;;;;;2.30;0.80;;;;;;;9.56;72.11;100537.41;4991322;28;20066;-75
2022/01/31 09:58:42;;;;;;;7.05;0.82;;;;;;;10.14;69.76;100543.84;4992328;28;20034;-75
2022/01/31 10:01:13;;;;;;;2.95;0.77;;;;;;;10.18;69.59;100566.50;4987425;28;20154;-75
2022/01/31 10:04:00;;;;;;;0.95;0.40;;;;;;;9.81;71.08;100567.63;4972431;28;20074;-74
2022/01/31 10:06:28;;;;;;;2.63;0.60;;;;;;;9.54;70.82;100572.50;4973703;28;20038;-74
2022/01/31 10:09:04;;;;;;;2.85;0.50;;;;;;;9.70;70.92;100582.63;4988015;28;20121;-74
2022/01/31 10:11:38;;;;;;;4.28;1.00;;;;;;;10.11;69.71;100583.75;4990355;28;20049;-76
2022/01/31 10:17:05;;;;;;;0.30;0.30;;;;;;;9.59;71.17;100610.19;4985754;28;20521;-74
2022/01/31 10:19:39;;;;;;;4.32;1.40;;;;;;;9.65;70.91;100595.88;4989891;28;20038;-75
2022/01/31 10:22:08;;;;;;;7.32;0.75;;;;;;;10.09;69.70;100618.84;4990755;28;20080;-76
2022/01/31 10:24:36;;;;;;;0.93;0.50;;;;;;;9.57;70.55;100608.81;4982571;28;20062;-74
2022/01/31 10:27:22;;;;;;;2.45;0.47;;;;;;;9.97;69.16;100625.22;4971410;28;20041;-77
2022/01/31 10:29:49;;;;;;;2.53;0.47;;;;;;;9.53;69.41;100637.13;4974907;28;20624;-75
2022/01/31 10:32:26;;;;;;;1.92;0.90;;;;;;;9.87;68.55;100628.44;4982864;28;20038;-72
2022/01/31 10:34:55;;;;;;;2.63;0.60;;;;;;;9.46;70.78;100631.81;4983619;28;20112;-73
2022/01/31 10:37:23;;;;;;;5.30;0.60;;;;;;;8.88;73.04;100640.41;4974122;28;20035;-72
2022/01/31 10:53:47;;;;;;;11.18;2.20;;;;;;;10.02;70.67;100642.31;4973272;28;20046;-74
2022/01/31 10:56:13;;;;;;;27.30;4.25;;;;;;;9.81;72.34;100637.38;4968898;28;20126;-72
2022/01/31 10:58:57;;;;;;;11.00;1.80;;;;;;;9.52;73.40;100640.81;4971123;28;20113;-73
2022/01/31 11:01:24;;;;;;;9.32;2.55;;;;;;;10.06;70.90;100642.66;4964406;28;20043;-74
2022/01/31 11:03:51;;;;;;;12.57;2.65;;;;;;;10.28;70.91;100641.16;4969851;28;20046;-73
2022/01/31 11:06:17;;;;;;;22.73;2.72;;;;;;;9.81;72.14;100642.75;4965519;28;20029;-72
2022/01/31 11:08:43;;;;;;;13.93;2.25;;;;;;;9.98;71.70;100685.91;4971007;28;20490;-73
2022/01/31 11:11:08;;;;;;;24.58;3.85;;;;;;;10.42;71.44;100670.28;4960935;28;20051;-73
2022/01/31 11:13:37;;;;;;;26.13;3.97;;;;;;;10.62;70.23;100656.56;4951416;28;20504;-72
2022/01/31 11:16:04;;;;;;;19.50;2.83;;;;;;;9.69;73.33;100676.75;4961324;28;20067;-74
2022/01/31 11:18:32;;;;;;;34.17;4.18;;;;;;;10.30;71.52;100671.28;4969338;28;20038;-74
2022/01/31 11:21:04;;;;;;;23.08;6.47;;;;;;;10.35;71.42;100666.88;4969357;28;20069;-74
2022/01/31 11:23:32;;;;;;;9.25;3.42;;;;;;;10.56;70.07;100674.41;4955701;28;20479;-73
2022/01/31 11:26:00;;;;;;;14.82;3.70;;;;;;;10.41;71.03;100671.34;4970054;28;20050;-73
2022/01/31 11:28:31;;;;;;;25.00;3.03;;;;;;;10.19;71.81;100672.03;4967183;28;20062;-76
2022/01/31 11:30:57;;;;;;;26.70;4.25;;;;;;;10.56;70.31;100682.47;4970003;28;20043;-76
2022/01/31 11:33:23;;;;;;;16.95;2.63;;;;;;;9.96;72.33;100685.31;4973038;28;20039;-75
2022/01/31 11:35:50;;;;;;;13.90;2.97;;;;;;;10.50;70.89;100685.25;4973581;28;20082;-74
2022/01/31 11:38:16;;;;;;;12.43;3.67;;;;;;;10.74;69.74;100681.59;4970200;28;20317;-73
2022/01/31 11:40:43;;;;;;;26.08;3.78;;;;;;;10.52;71.78;100707.34;4985616;28;20041;-75
2022/01/31 11:43:10;;;;;;;24.67;3.78;;;;;;;10.49;71.41;100735.50;4989243;28;20065;-72
2022/01/31 11:45:39;;;;;;;11.65;2.03;;;;;;;10.58;71.05;100706.41;4984033;28;20038;-75
2022/01/31 11:48:09;;;;;;;27.85;4.85;;;;;;;10.88;70.01;100704.53;4983564;28;20034;-75
2022/01/31 11:50:47;;;;;;;31.10;3.70;;;;;;;10.82;70.47;100710.00;4982391;28;20109;-73
2022/01/31 11:53:12;;;;;;;14.25;3.13;;;;;;;10.22;72.96;100710.00;4988648;28;20065;-75
2022/01/31 11:55:38;;;;;;;24.58;4.78;;;;;;;10.76;70.84;100716.28;4977048;28;20046;-73
2022/01/31 11:58:09;;;;;;;19.13;4.75;;;;;;;9.74;74.16;100698.38;4979688;28;20046;-74
2022/01/31 12:00:40;;;;;;;25.05;4.35;;;;;;;11.16;69.84;100706.56;4988519;28;20038;-74